Current Weather

Needles

Needles, California (KEED)

Report from: Thursday, July 18, 2024 6:56 AM PDT
Current time: Thursday, July 18, 2024 7:48 AM PDT

Nearby weather – Weather history – Daily summaries
Weather forecast

Temperature34.4°C (93.9°F)
Heat index34.4°C (93.8°F)
Dew point15.6°C (60.1°F)
Winds 4 kts (2.1 m/s, 4.6 mph) Northwest (310°)
Visibility10 mi. (16.1 km)
Clouds Sky clear
Altimeter29.88 in.Hg (1012 mB)
Relative humidity33 %
Density altitude2,638 ft. (804 m)
Sea-level pressure100.8 kPa (1008 mB, 29.75 in.Hg)
Remarks Fully automated report
System requires maintenance
Automated weather observing station with precipitation discriminator
Flight conditions Visual Meteorological Conditions
Raw dataKEED 181356Z AUTO 31004KT 10SM CLR 34/16 A2988 RMK AO2 SLP076 T03440156 $
An error has occurred. This application may no longer respond until reloaded. Reload 🗙